Lawrenceburg, IN

12:34 PM EDT on July 27, 2016 (GMT -0400)
| | Change Station

Elev -9999 ft 0.00 °N, 0.00 °E | Updated

Mostly Cloudy
Mostly Cloudy
87 °F
Feels Like 93 °F
N
4
Wind Variable Wind from WNW
Gusts mph

Today
High -- | Low -- °F
--% Chance of Precip.
Yesterday
High -- | Low -- °F
Precip. -- in
Pressure 30.00 in
Visibility 9.0 miles
Clouds Few 2300 ft
Scattered Clouds 3900 ft
Mostly Cloudy 19000 ft
Heat Index 93 °F
Dew Point 70 °F
Humidity 57%
Rainfall --
Snow Depth Not available.
6:36 AM 8:55 PM
Last Quarter, 42% visible
METAR KCVG 271552Z 25003KT 9SM FEW023 SCT039 BKN190 28/23 A3003 RMK AO2 SLP157 T02780228
Pressure 30.00 in
Visibility 9.0 miles
Clouds Few 2300 ft
Scattered Clouds 3900 ft
Mostly Cloudy 19000 ft
Heat Index 93 °F
Dew Point 70 °F
Humidity 57%
Rainfall --
Snow Depth Not available.
6:36 AM 8:55 PM
Last Quarter, 42% visible
METAR KCVG 271552Z 25003KT 9SM FEW023 SCT039 BKN190 28/23 A3003 RMK AO2 SLP157 T02780228

10-Day Weather Forecast

Almanac

Astronomy

Jul. 27, 2016 Rise Set
Actual Time
Civil Twilight
Nautical Twilight
Astronomical Twilight
Moon
Length of Visible Light
Length of Day
Tomorrow will be .
, % of the Moon is Illuminated

Today's Extremes

State Highs State Lows

Community

WunderPhotos

Upload Photos

1,927,880 photos uploaded!

WunderBlog® & News

Nearby

Air Quality

  Air Quality AQ Index Pollutant
Not available.

Snow Depth

Station Depth Elevation

Earthquake Activity

City Distance Mag. Time & Date
Minimum magnitude displayed is 2.5.

Coastal Water Temperatures

Place Temperature

Stations

Nearby Weather Stations

Station Location Temp. Windchill Dew Point Humidity Wind Precip. Elev Updated Type
                   

Watches & Warnings

There are currently no watches in effect.